Time;durP1;ratioP1;P1;durP2;ratioP2;P2;SDS_P1;SDS_P2;PMS_P1;PMS_P2;Temp;Humidity;BMP_temperature;BMP_pressure;BME280_temperature;BME280_humidity;BME280_pressure;Samples;Min_cycle;Max_cycle;Signal;HPM_P1;HPM_P2
2023/04/19 00:01:43;;;;;;;6.00;3.97;;;12.50;79.10;;;;;;5035347;28;20017;-83
2023/04/19 00:04:08;;;;;;;5.93;3.78;;;12.60;79.20;;;;;;5035203;28;20531;-83
2023/04/19 00:06:34;;;;;;;6.00;4.10;;;12.60;79.20;;;;;;5034335;28;20029;-84
2023/04/19 00:08:59;;;;;;;6.60;4.10;;;12.50;79.10;;;;;;5039912;28;20037;-85
2023/04/19 00:11:25;;;;;;;6.95;4.32;;;12.60;79.20;;;;;;5041044;28;20041;-84
2023/04/19 00:13:50;;;;;;;6.70;4.38;;;12.60;79.20;;;;;;5040131;28;20049;-85
2023/04/19 00:16:16;;;;;;;5.93;3.92;;;12.60;79.20;;;;;;5040495;28;20033;-85
2023/04/19 00:18:41;;;;;;;6.25;3.92;;;12.60;79.20;;;;;;5041868;28;20021;-84
2023/04/19 00:21:07;;;;;;;5.95;3.78;;;12.50;79.20;;;;;;5037674;28;20398;-84
2023/04/19 00:23:33;;;;;;;6.50;4.15;;;12.50;79.20;;;;;;5034011;28;20129;-84
2023/04/19 00:26:02;;;;;;;5.75;3.58;;;12.60;79.20;;;;;;5041088;28;20052;-84
2023/04/19 00:28:28;;;;;;;6.07;3.85;;;12.60;79.20;;;;;;5037276;28;20021;-83
2023/04/19 00:30:53;;;;;;;5.85;3.83;;;12.50;79.20;;;;;;5034542;28;20544;-84
2023/04/19 00:33:19;;;;;;;6.82;4.30;;;12.60;79.20;;;;;;5038651;28;20026;-84
2023/04/19 00:35:45;;;;;;;5.63;3.80;;;12.60;79.20;;;;;;5038414;28;20507;-84
2023/04/19 00:38:10;;;;;;;7.13;4.07;;;12.60;79.20;;;;;;5038436;28;20473;-84
2023/04/19 00:40:37;;;;;;;6.60;4.05;;;12.60;79.20;;;;;;5033013;28;20022;-83
2023/04/19 00:43:02;;;;;;;6.13;3.95;;;12.60;79.20;;;;;;5033991;28;20036;-80
2023/04/19 00:45:28;;;;;;;6.40;4.28;;;12.60;79.20;;;;;;5035302;28;20025;-84
2023/04/19 00:47:54;;;;;;;6.90;4.55;;;12.60;79.20;;;;;;5037487;28;20486;-84
2023/04/19 00:50:20;;;;;;;6.10;3.97;;;12.60;79.20;;;;;;5039805;28;20029;-85
2023/04/19 00:52:46;;;;;;;6.80;4.05;;;12.60;79.30;;;;;;5058446;28;20021;-85
2023/04/19 00:55:12;;;;;;;6.70;4.10;;;12.60;79.20;;;;;;5040244;28;20021;-84
2023/04/19 00:57:38;;;;;;;8.48;3.88;;;12.50;79.10;;;;;;5058653;28;20032;-84
2023/04/19 01:00:08;;;;;;;6.32;3.78;;;12.60;79.20;;;;;;5042213;28;20024;-83
2023/04/19 01:02:35;;;;;;;5.97;3.95;;;12.60;79.30;;;;;;5062404;28;20025;-85
2023/04/19 01:05:00;;;;;;;7.60;3.88;;;12.60;79.20;;;;;;5044915;28;20072;-85
2023/04/19 01:07:26;;;;;;;6.28;4.00;;;12.60;79.20;;;;;;5044443;28;20033;-85
2023/04/19 01:09:52;;;;;;;6.40;3.83;;;12.50;79.20;;;;;;5043363;28;20078;-85
2023/04/19 01:12:17;;;;;;;5.85;3.72;;;12.50;79.20;;;;;;5043502;28;20037;-84
2023/04/19 01:14:43;;;;;;;6.30;4.07;;;12.60;79.20;;;;;;5053799;28;20021;-84
2023/04/19 01:17:09;;;;;;;6.00;3.80;;;12.60;79.20;;;;;;5041043;28;20025;-85
2023/04/19 01:19:35;;;;;;;5.90;3.78;;;12.60;79.20;;;;;;5059823;28;20644;-84
2023/04/19 01:22:02;;;;;;;7.43;3.70;;;12.60;79.30;;;;;;5058803;28;20460;-84
2023/04/19 01:24:29;;;;;;;6.13;3.80;;;12.60;79.20;;;;;;5041581;28;20017;-84
2023/04/19 01:26:55;;;;;;;6.28;3.80;;;12.60;79.20;;;;;;5040683;28;20028;-84
2023/04/19 01:29:21;;;;;;;6.28;3.58;;;12.60;79.20;;;;;;5039890;28;20028;-84
2023/04/19 01:31:50;;;;;;;6.10;3.88;;;12.60;79.20;;;;;;5040588;28;20040;-84
2023/04/19 01:34:15;;;;;;;6.40;3.78;;;12.60;79.20;;;;;;5058145;28;20469;-85
2023/04/19 01:36:41;;;;;;;6.35;3.83;;;12.60;79.30;;;;;;5040128;28;20083;-84
2023/04/19 01:39:07;;;;;;;6.43;3.97;;;12.50;79.20;;;;;;5040227;28;20523;-84
2023/04/19 01:41:32;;;;;;;6.47;3.92;;;12.60;79.20;;;;;;5036498;28;20401;-84
2023/04/19 01:43:59;;;;;;;5.95;3.90;;;12.60;79.20;;;;;;5055074;28;20033;-83
2023/04/19 01:46:25;;;;;;;5.95;3.88;;;12.60;79.20;;;;;;5039501;28;20485;-84
2023/04/19 01:48:50;;;;;;;5.90;3.90;;;12.60;79.20;;;;;;5035953;28;20053;-83
2023/04/19 01:51:16;;;;;;;5.97;3.65;;;12.60;79.20;;;;;;5035393;28;20029;-84
2023/04/19 01:53:41;;;;;;;5.82;3.78;;;12.50;79.20;;;;;;5035772;28;20051;-83
2023/04/19 01:56:07;;;;;;;6.35;3.85;;;12.60;79.20;;;;;;5056821;28;20477;-84
2023/04/19 01:58:32;;;;;;;5.95;3.55;;;12.50;79.20;;;;;;5056663;28;20025;-84
2023/04/19 02:00:58;;;;;;;6.82;3.83;;;12.60;79.20;;;;;;5055903;28;20048;-83
2023/04/19 02:03:24;;;;;;;6.32;3.88;;;12.50;79.20;;;;;;5035149;28;20108;-84
2023/04/19 02:05:49;;;;;;;6.60;4.20;;;12.60;79.20;;;;;;5035539;28;20029;-83
2023/04/19 02:08:14;;;;;;;6.03;3.75;;;12.60;79.20;;;;;;5054157;28;20064;-83
2023/04/19 02:10:40;;;;;;;5.78;3.83;;;12.60;79.20;;;;;;5055915;28;20025;-83
2023/04/19 02:13:05;;;;;;;5.60;3.50;;;12.60;79.20;;;;;;5056236;28;20393;-83
2023/04/19 02:15:31;;;;;;;5.60;3.55;;;12.60;79.20;;;;;;5056364;28;20076;-84
2023/04/19 02:17:58;;;;;;;6.35;4.07;;;12.60;79.20;;;;;;5055648;28;20500;-83
2023/04/19 02:20:24;;;;;;;5.53;3.42;;;12.50;79.10;;;;;;5034568;28;20748;-83
2023/04/19 02:22:49;;;;;;;5.20;3.50;;;12.60;79.20;;;;;;5035247;28;20067;-83
2023/04/19 02:25:15;;;;;;;5.57;3.40;;;12.50;79.10;;;;;;5053503;28;20103;-83
2023/04/19 02:27:41;;;;;;;6.10;3.80;;;12.60;79.20;;;;;;5054382;28;20528;-84
2023/04/19 02:30:07;;;;;;;5.80;3.90;;;12.50;79.10;;;;;;5054719;28;20400;-84
2023/04/19 02:32:32;;;;;;;6.90;3.97;;;12.60;79.10;;;;;;5036754;28;20488;-84
2023/04/19 02:34:58;;;;;;;5.40;3.20;;;12.60;79.10;;;;;;5035969;28;20044;-83
2023/04/19 02:37:23;;;;;;;6.57;3.70;;;12.60;79.10;;;;;;5034684;28;20020;-84
2023/04/19 02:39:49;;;;;;;5.90;3.90;;;12.60;79.10;;;;;;5035625;28;20029;-84
2023/04/19 02:42:14;;;;;;;5.60;3.60;;;12.50;79.00;;;;;;5038124;28;20028;-84
2023/04/19 02:44:40;;;;;;;5.47;3.22;;;12.60;79.10;;;;;;5034683;28;20033;-84
2023/04/19 02:47:06;;;;;;;5.95;3.75;;;12.60;79.10;;;;;;5031180;28;20033;-83
2023/04/19 02:49:35;;;;;;;6.38;4.05;;;12.50;79.00;;;;;;5015382;28;20029;-83
2023/04/19 02:52:00;;;;;;;5.57;3.63;;;12.60;79.10;;;;;;5015358;28;20028;-84
2023/04/19 02:54:26;;;;;;;5.93;3.75;;;12.50;79.00;;;;;;5017772;28;20101;-83
2023/04/19 02:56:51;;;;;;;5.50;3.40;;;12.60;79.00;;;;;;5017924;28;20030;-84
2023/04/19 02:59:17;;;;;;;5.63;3.22;;;12.50;79.00;;;;;;5018044;28;20068;-83
2023/04/19 03:01:42;;;;;;;5.25;3.38;;;12.50;79.00;;;;;;5018340;28;20085;-84
2023/04/19 03:04:08;;;;;;;5.00;3.35;;;12.60;79.00;;;;;;5016600;28;20113;-84
2023/04/19 03:06:33;;;;;;;6.05;3.70;;;12.50;78.90;;;;;;5015160;28;20026;-83
2023/04/19 03:08:59;;;;;;;5.57;3.50;;;12.50;78.90;;;;;;5014953;28;20056;-84
2023/04/19 03:11:24;;;;;;;6.20;3.97;;;12.60;79.00;;;;;;5015449;28;20513;-84
2023/04/19 03:13:50;;;;;;;5.90;3.75;;;12.60;79.00;;;;;;5016042;28;20026;-83
2023/04/19 03:16:15;;;;;;;5.25;3.22;;;12.50;78.90;;;;;;5015141;28;20028;-84
2023/04/19 03:18:40;;;;;;;5.30;3.40;;;12.60;78.90;;;;;;5015076;28;20018;-84
2023/04/19 03:21:08;;;;;;;5.70;3.15;;;12.50;78.80;;;;;;5014354;28;20360;-83
2023/04/19 03:23:34;;;;;;;5.40;3.47;;;12.50;78.80;;;;;;5013685;28;20113;-82
2023/04/19 03:25:59;;;;;;;5.10;3.20;;;12.50;78.80;;;;;;5013367;28;20610;-83
2023/04/19 03:28:28;;;;;;;5.68;3.63;;;12.50;78.80;;;;;;5027989;28;20089;-83
2023/04/19 03:30:53;;;;;;;6.45;3.50;;;12.60;78.80;;;;;;5030697;28;20089;-82
2023/04/19 03:33:18;;;;;;;5.82;3.78;;;12.50;79.20;;;;;;4996132;28;20143;-83
2023/04/19 03:35:44;;;;;;;5.18;3.28;;;12.50;78.70;;;;;;4994891;28;20057;-83
2023/04/19 03:38:10;;;;;;;5.75;3.38;;;12.50;78.70;;;;;;5004174;28;20058;-84
2023/04/19 03:40:38;;;;;;;5.55;3.42;;;12.50;78.70;;;;;;5016274;28;20034;-85
2023/04/19 03:43:06;;;;;;;5.00;3.10;;;12.60;78.70;;;;;;5001614;28;20549;-85
2023/04/19 03:45:49;;;;;;;5.75;3.50;;;12.80;78.70;;;;;;5001008;28;20030;-84
2023/04/19 03:48:53;;;;;;;5.70;3.40;;;12.50;78.60;;;;;;5000040;28;20034;-84
2023/04/19 03:51:22;;;;;;;6.35;3.53;;;12.50;78.50;;;;;;5017750;28;20042;-85
2023/04/19 03:53:52;;;;;;;5.32;3.33;;;13.00;78.70;;;;;;5018128;28;20033;-83
2023/04/19 03:56:18;;;;;;;5.85;3.85;;;12.40;78.40;;;;;;5017984;28;20021;-84
2023/04/19 03:58:53;;;;;;;5.85;3.58;;;13.10;78.70;;;;;;5018562;28;20524;-82
2023/04/19 04:01:20;;;;;;;5.28;3.30;;;13.00;78.70;;;;;;5017315;28;20738;-83
2023/04/19 04:03:45;;;;;;;5.78;3.58;;;12.60;78.50;;;;;;5036461;28;20105;-85
2023/04/19 04:06:12;;;;;;;5.90;3.38;;;12.50;78.40;;;;;;5017328;28;20056;-83
2023/04/19 04:08:59;;;;;;;6.38;3.72;;;12.40;78.30;;;;;;5018712;28;20025;-81
2023/04/19 04:11:25;;;;;;;5.97;3.55;;;12.60;78.40;;;;;;5006779;28;20044;-79
2023/04/19 04:13:55;;;;;;;5.68;3.25;;;12.50;78.40;;;;;;5033894;28;20113;-85
2023/04/19 04:16:23;;;;;;;6.10;3.60;;;12.50;78.30;;;;;;5015319;28;20021;-84
2023/04/19 04:19:20;;;;;;;5.30;3.40;;;12.90;78.60;;;;;;5015089;28;20031;-85
2023/04/19 04:22:15;;;;;;;;;;;;;;;;;;;;;
2023/04/19 04:24:42;;;;;;;5.78;3.20;;;12.60;78.30;;;;;;5034216;28;20025;-82
2023/04/19 04:30:09;;;;;;;5.60;3.42;;;13.00;78.50;;;;;;5023185;28;20371;-83
2023/04/19 04:33:19;;;;;;;5.22;3.10;;;12.50;78.30;;;;;;5015251;28;20107;-84
2023/04/19 04:36:31;;;;;;;5.43;3.30;;;12.30;78.00;;;;;;5018921;28;20134;-85
2023/04/19 04:39:53;;;;;;;5.47;3.20;;;12.60;78.30;;;;;;5034495;28;20025;-83
2023/04/19 04:42:44;;;;;;;5.35;3.42;;;12.50;78.10;;;;;;4915751;29;20425;-82
2023/04/19 04:56:25;;;;;;;;;;;;;;;;;;;;;
2023/04/19 06:31:58;;;;;;;5.28;2.95;;;12.80;76.50;;;;;;4930772;29;20567;-81
2023/04/19 06:41:22;;;;;;;5.13;2.65;;;12.70;76.10;;;;;;5131297;22;20057;-82
2023/04/19 06:43:48;;;;;;;5.30;2.92;;;12.90;76.10;;;;;;5031533;28;20030;-82
2023/04/19 06:46:14;;;;;;;4.95;2.70;;;12.90;76.10;;;;;;5031149;28;20053;-81
2023/04/19 06:48:40;;;;;;;5.10;2.85;;;12.90;76.00;;;;;;5012534;28;20503;-80
2023/04/19 06:51:06;;;;;;;5.10;2.90;;;13.00;76.10;;;;;;5012271;28;20493;-81
2023/04/19 06:53:31;;;;;;;4.40;2.53;;;13.00;76.10;;;;;;5013196;28;20125;-81
2023/04/19 06:56:01;;;;;;;4.40;2.75;;;13.00;76.10;;;;;;5013148;28;20036;-83
2023/04/19 06:58:27;;;;;;;4.68;2.80;;;13.00;76.10;;;;;;5031892;28;20053;-82
2023/04/19 07:11:10;;;;;;;4.43;2.60;;;13.10;75.80;;;;;;5029909;28;20045;-80
2023/04/19 07:13:35;;;;;;;4.95;2.50;;;13.10;75.80;;;;;;5035628;23;20317;-87
2023/04/19 07:16:04;;;;;;;3.50;2.17;;;13.20;75.80;;;;;;5011324;28;20022;-83
2023/04/19 07:18:29;;;;;;;4.60;2.45;;;13.20;75.80;;;;;;5011269;28;20528;-82
2023/04/19 07:20:54;;;;;;;4.95;2.55;;;13.20;75.60;;;;;;5010663;28;20037;-82
2023/04/19 07:23:20;;;;;;;5.07;3.00;;;13.20;75.70;;;;;;5010635;28;20029;-81
2023/04/19 07:25:45;;;;;;;4.70;2.55;;;13.20;75.50;;;;;;5010701;28;20345;-82
2023/04/19 07:28:11;;;;;;;3.97;2.50;;;13.30;75.50;;;;;;5012797;28;20465;-81
2023/04/19 07:30:37;;;;;;;4.50;2.65;;;13.30;75.60;;;;;;5013772;28;20030;-81
2023/04/19 07:33:03;;;;;;;4.57;2.40;;;13.30;75.60;;;;;;5014231;28;20080;-81
2023/04/19 07:35:29;;;;;;;4.35;2.50;;;13.30;75.60;;;;;;5014061;28;20026;-82
2023/04/19 07:37:54;;;;;;;4.78;2.58;;;13.30;75.70;;;;;;5014134;28;20569;-82
2023/04/19 07:40:20;;;;;;;3.90;2.40;;;13.30;76.10;;;;;;5013981;28;20053;-81
2023/04/19 07:42:45;;;;;;;4.45;2.40;;;13.30;75.50;;;;;;5013982;28;20092;-81
2023/04/19 07:45:11;;;;;;;4.28;2.50;;;13.30;75.50;;;;;;5015219;28;20026;-81
2023/04/19 07:47:37;;;;;;;4.40;2.70;;;13.30;75.60;;;;;;5013774;28;20155;-82
2023/04/19 07:50:04;;;;;;;4.65;2.45;;;13.30;75.40;;;;;;5013716;28;20076;-82
2023/04/19 07:52:30;;;;;;;4.50;2.67;;;13.30;75.60;;;;;;5013875;28;20125;-81
2023/04/19 07:54:55;;;;;;;5.10;2.70;;;13.40;75.70;;;;;;5013557;28;20095;-82
2023/04/19 07:57:21;;;;;;;4.20;2.33;;;13.40;75.70;;;;;;5015372;28;20033;-81
2023/04/19 07:59:46;;;;;;;4.85;2.63;;;13.40;75.80;;;;;;5013460;28;20034;-81
2023/04/19 08:02:12;;;;;;;3.17;2.10;;;13.40;75.60;;;;;;5013553;28;20018;-82
2023/04/19 08:04:38;;;;;;;4.68;2.40;;;13.40;75.60;;;;;;5013412;28;20105;-81
2023/04/19 08:07:03;;;;;;;4.75;2.63;;;13.40;75.30;;;;;;5013516;28;20064;-81
2023/04/19 08:09:29;;;;;;;4.15;2.42;;;13.40;75.20;;;;;;5013471;28;20026;-82
2023/04/19 08:11:55;;;;;;;3.67;2.25;;;13.40;75.40;;;;;;5013020;28;20040;-82
2023/04/19 08:14:21;;;;;;;4.72;2.40;;;13.50;75.60;;;;;;5028810;28;20331;-81
2023/04/19 08:16:46;;;;;;;4.28;2.47;;;13.50;75.60;;;;;;5016797;28;20049;-81
2023/04/19 08:19:12;;;;;;;4.57;2.20;;;13.50;75.30;;;;;;5016600;28;20021;-81
2023/04/19 08:21:37;;;;;;;4.63;2.38;;;13.50;75.50;;;;;;5016783;28;20108;-82
2023/04/19 08:24:03;;;;;;;3.55;2.20;;;13.50;75.30;;;;;;5017044;28;20034;-81
2023/04/19 08:26:29;;;;;;;4.88;2.38;;;13.50;75.20;;;;;;5016982;28;20021;-82
2023/04/19 08:28:54;;;;;;;4.38;2.47;;;13.50;75.30;;;;;;5017086;28;20477;-81
2023/04/19 08:31:20;;;;;;;3.72;2.28;;;13.50;75.10;;;;;;5016757;28;20033;-82
2023/04/19 08:33:46;;;;;;;4.25;2.50;;;13.60;75.00;;;;;;5016816;28;20014;-82
2023/04/19 08:36:11;;;;;;;4.38;2.17;;;13.60;75.10;;;;;;5016894;28;20032;-82
2023/04/19 08:38:37;;;;;;;4.28;2.42;;;13.60;75.20;;;;;;5015690;28;20030;-81
2023/04/19 08:41:03;;;;;;;4.20;2.30;;;13.60;74.90;;;;;;5016741;28;20025;-82
2023/04/19 08:43:32;;;;;;;4.68;2.67;;;13.70;74.90;;;;;;5016693;28;20029;-82
2023/04/19 08:45:58;;;;;;;5.05;2.30;;;13.70;74.80;;;;;;5016830;28;20120;-82
2023/04/19 08:48:26;;;;;;;4.93;2.42;;;13.70;74.50;;;;;;5019159;28;20032;-81
2023/04/19 08:50:52;;;;;;;4.80;2.50;;;13.70;74.80;;;;;;4996693;28;20029;-82
2023/04/19 08:53:18;;;;;;;3.90;2.30;;;13.80;74.90;;;;;;5014658;28;20093;-82
2023/04/19 08:55:44;;;;;;;4.10;2.40;;;13.80;74.80;;;;;;4997176;28;20029;-80
2023/04/19 08:58:10;;;;;;;4.38;2.30;;;13.80;74.60;;;;;;4996843;28;20112;-83
2023/04/19 09:00:40;;;;;;;3.70;2.10;;;13.80;74.30;;;;;;4996579;28;20591;-84
2023/04/19 09:03:07;;;;;;;3.90;2.35;;;13.90;74.40;;;;;;4996770;28;20030;-84
2023/04/19 09:05:33;;;;;;;4.50;2.45;;;13.90;74.30;;;;;;4996723;28;20124;-81
2023/04/19 09:08:21;;;;;;;4.05;2.40;;;13.90;74.10;;;;;;4996711;28;20084;-84
2023/04/19 09:10:58;;;;;;;3.88;2.10;;;14.00;74.20;;;;;;4996424;28;20040;-82
2023/04/19 09:13:25;;;;;;;4.00;2.22;;;14.00;74.10;;;;;;4996466;28;20036;-83
2023/04/19 09:15:52;;;;;;;5.55;2.13;;;14.00;73.90;;;;;;4996551;28;20098;-82
2023/04/19 09:18:18;;;;;;;3.05;1.90;;;14.00;74.00;;;;;;4996535;28;20036;-84
2023/04/19 09:20:45;;;;;;;4.70;2.40;;;14.10;74.00;;;;;;4996487;28;20406;-83
2023/04/19 09:23:14;;;;;;;4.03;2.40;;;14.10;73.70;;;;;;4996261;28;20511;-83
2023/04/19 09:25:49;;;;;;;4.43;2.58;;;14.10;73.90;;;;;;4996476;28;20033;-85
2023/04/19 09:28:15;;;;;;;4.10;2.42;;;14.10;73.60;;;;;;4996317;28;20482;-83
2023/04/19 09:30:40;;;;;;;4.13;2.30;;;14.10;73.70;;;;;;4995984;28;20038;-83
2023/04/19 09:33:07;;;;;;;4.38;2.33;;;14.10;73.50;;;;;;4996304;28;20072;-83
2023/04/19 09:35:43;;;;;;;4.22;2.25;;;14.20;73.60;;;;;;4996056;28;20053;-83
2023/04/19 09:38:10;;;;;;;3.90;2.13;;;14.20;73.70;;;;;;4996137;28;20080;-83
2023/04/19 09:40:37;;;;;;;5.05;2.60;;;14.20;73.70;;;;;;4995786;28;20099;-83
2023/04/19 09:43:03;;;;;;;4.82;2.30;;;14.20;73.60;;;;;;4995802;28;20052;-84
2023/04/19 09:45:43;;;;;;;4.57;2.42;;;14.20;73.50;;;;;;4996160;28;20025;-86
2023/04/19 09:48:09;;;;;;;3.50;2.30;;;14.20;73.50;;;;;;4996145;28;20510;-82
2023/04/19 09:50:45;;;;;;;3.40;2.10;;;14.20;73.30;;;;;;4995364;28;20120;-84
2023/04/19 09:53:12;;;;;;;3.95;2.35;;;14.20;73.40;;;;;;4995987;28;20026;-82
2023/04/19 09:55:40;;;;;;;4.40;2.40;;;14.20;73.50;;;;;;4995785;28;20491;-81
2023/04/19 09:58:05;;;;;;;4.53;2.25;;;14.30;73.30;;;;;;4995954;28;20033;-85
2023/04/19 10:00:32;;;;;;;4.47;2.47;;;14.30;73.40;;;;;;4995474;28;20073;-84
2023/04/19 10:02:58;;;;;;;4.13;2.42;;;14.30;73.40;;;;;;4995640;28;20117;-82
2023/04/19 10:05:24;;;;;;;3.60;2.38;;;14.30;73.40;;;;;;4995730;28;20060;-85
2023/04/19 10:07:51;;;;;;;3.33;1.92;;;14.30;73.30;;;;;;5013217;28;20027;-83
2023/04/19 10:10:17;;;;;;;3.40;2.20;;;14.30;73.20;;;;;;4995348;28;20490;-82
2023/04/19 10:12:49;;;;;;;3.75;2.20;;;14.30;73.20;;;;;;4995250;28;20034;-82
2023/04/19 10:15:15;;;;;;;3.58;2.00;;;14.40;73.30;;;;;;4995724;28;20030;-81
2023/04/19 10:17:41;;;;;;;4.28;2.30;;;14.30;73.20;;;;;;4995504;28;20104;-83
2023/04/19 10:20:10;;;;;;;3.80;2.10;;;14.40;73.10;;;;;;4995288;28;20068;-83
2023/04/19 10:22:37;;;;;;;3.75;2.28;;;14.40;73.00;;;;;;4995383;28;20062;-82
2023/04/19 10:25:16;;;;;;;3.75;2.08;;;14.40;73.00;;;;;;4995488;28;20056;-83
2023/04/19 10:27:47;;;;;;;4.35;2.15;;;14.40;73.10;;;;;;4995330;28;20159;-84
2023/04/19 10:30:18;;;;;;;4.10;2.28;;;14.40;73.10;;;;;;4995173;28;20120;-84
2023/04/19 10:32:50;;;;;;;3.25;2.20;;;14.40;73.00;;;;;;4995123;28;20037;-83
2023/04/19 10:35:17;;;;;;;4.20;2.10;;;14.40;73.00;;;;;;4995496;28;20052;-84
2023/04/19 10:38:05;;;;;;;3.95;2.30;;;14.40;73.20;;;;;;4995396;28;20026;-82
2023/04/19 10:40:50;;;;;;;3.75;1.90;;;14.40;73.00;;;;;;4995029;28;20056;-81
2023/04/19 10:43:17;;;;;;;3.95;2.00;;;14.50;73.10;;;;;;4987750;28;20116;-82
2023/04/19 10:45:44;;;;;;;3.63;2.08;;;14.50;73.00;;;;;;5012712;28;20123;-81
2023/04/19 10:48:34;;;;;;;8.30;2.30;;;14.50;73.00;;;;;;4994527;28;20402;-83
2023/04/19 10:51:17;;;;;;;29.20;3.80;;;14.40;73.60;;;;;;5012462;28;20053;-82
2023/04/19 10:53:52;;;;;;;19.42;3.58;;;14.40;72.80;;;;;;4994947;28;20029;-83
2023/04/19 10:56:20;;;;;;;18.17;2.75;;;14.40;71.70;;;;;;4995059;28;20026;-82
2023/04/19 10:59:01;;;;;;;23.38;3.45;;;14.40;72.00;;;;;;4995048;28;20538;-83
2023/04/19 11:01:35;;;;;;;17.88;4.00;;;14.40;71.50;;;;;;4994944;28;20029;-83
2023/04/19 11:04:01;;;;;;;15.95;3.08;;;14.50;71.30;;;;;;4998717;28;20029;-83
2023/04/19 11:06:27;;;;;;;17.30;3.05;;;14.50;71.20;;;;;;5016511;28;20121;-80
2023/04/19 11:08:53;;;;;;;15.32;2.70;;;14.50;72.00;;;;;;4998863;28;20116;-82
2023/04/19 11:11:20;;;;;;;16.05;2.83;;;14.50;72.30;;;;;;4998388;28;20486;-83
2023/04/19 11:13:49;;;;;;;16.33;3.25;;;14.50;71.70;;;;;;4998769;28;20116;-83
2023/04/19 11:16:14;;;;;;;17.27;3.25;;;14.50;71.40;;;;;;4998860;28;20121;-83
2023/04/19 11:18:40;;;;;;;11.05;2.80;;;14.50;71.70;;;;;;4998725;28;20060;-83
2023/04/19 11:21:05;;;;;;;9.63;2.70;;;14.50;71.70;;;;;;4998539;28;20033;-83
2023/04/19 11:23:31;;;;;;;9.13;2.58;;;14.50;71.80;;;;;;4998718;28;20113;-82
2023/04/19 11:25:57;;;;;;;11.10;3.03;;;14.40;72.20;;;;;;4998688;28;20131;-83
2023/04/19 11:28:23;;;;;;;9.60;2.70;;;14.50;72.00;;;;;;4998556;28;20026;-83
2023/04/19 11:30:49;;;;;;;11.38;2.80;;;14.50;72.20;;;;;;4997769;28;20397;-82
2023/04/19 11:33:18;;;;;;;10.10;2.42;;;14.50;71.90;;;;;;4997723;28;20028;-83
2023/04/19 11:35:43;;;;;;;8.82;2.17;;;14.50;72.10;;;;;;4997786;28;20094;-82
2023/04/19 11:38:12;;;;;;;9.88;2.40;;;14.50;72.20;;;;;;4997617;28;20042;-83
2023/04/19 11:40:37;;;;;;;10.80;2.30;;;14.50;71.80;;;;;;4997470;28;20026;-83
2023/04/19 11:43:03;;;;;;;10.02;2.70;;;14.50;72.90;;;;;;5015202;28;20073;-82
2023/04/19 11:45:33;;;;;;;9.55;2.30;;;14.50;72.10;;;;;;4998294;28;20029;-82
2023/04/19 11:47:59;;;;;;;9.02;2.38;;;14.50;72.80;;;;;;4998231;28;20026;-82
2023/04/19 11:50:42;;;;;;;13.05;2.35;;;14.40;72.20;;;;;;4997943;28;20054;-83
2023/04/19 11:53:14;;;;;;;8.70;2.13;;;14.40;72.90;;;;;;4997894;28;20705;-82
2023/04/19 11:55:50;;;;;;;;;;;14.40;72.70;;;;;;4998727;28;20471;-82
2023/04/19 11:58:50;;;;;;;8.02;2.28;;;14.40;72.70;;;;;;4998003;28;19936;-82
2023/04/19 12:01:18;;;;;;;7.85;2.22;;;14.40;73.00;;;;;;4997025;28;20102;-83
2023/04/19 12:03:49;;;;;;;9.32;2.63;;;14.40;73.00;;;;;;4997068;28;20038;-82
2023/04/19 12:06:25;;;;;;;5.85;2.20;;;14.40;73.00;;;;;;4997220;28;20517;-82
2023/04/19 12:08:53;;;;;;;6.03;2.17;;;14.40;73.20;;;;;;4997792;28;20033;-82
2023/04/19 12:11:21;;;;;;;6.65;2.20;;;14.50;73.20;;;;;;4997627;28;20036;-83
2023/04/19 12:13:48;;;;;;;8.60;2.28;;;14.50;73.20;;;;;;4997254;28;20120;-83
2023/04/19 12:16:13;;;;;;;5.25;2.05;;;14.40;73.30;;;;;;4997665;28;20021;-82
2023/04/19 12:18:48;;;;;;;4.72;1.88;;;14.40;74.10;;;;;;4998171;28;20485;-82
2023/04/19 12:21:31;;;;;;;7.07;2.30;;;14.40;73.40;;;;;;4997454;28;20490;-83
2023/04/19 12:23:59;;;;;;;4.68;1.88;;;14.40;73.80;;;;;;4997576;28;20125;-82
2023/04/19 12:26:27;;;;;;;5.35;2.30;;;14.40;73.60;;;;;;4997529;28;20026;-82
2023/04/19 12:28:56;;;;;;;5.15;1.80;;;14.30;73.40;;;;;;4997454;28;20026;-85
2023/04/19 12:31:22;;;;;;;5.18;1.90;;;14.30;73.40;;;;;;4997256;28;20026;-83
2023/04/19 12:33:49;;;;;;;6.40;2.40;;;14.30;73.20;;;;;;4997695;28;20029;-82
2023/04/19 12:36:14;;;;;;;7.10;2.10;;;14.30;73.60;;;;;;4997243;28;20049;-82
2023/04/19 12:38:40;;;;;;;5.88;2.30;;;14.30;73.20;;;;;;4997168;28;20052;-83
2023/04/19 12:41:05;;;;;;;5.13;2.20;;;14.20;72.60;;;;;;4997027;28;20025;-83
2023/04/19 12:43:31;;;;;;;7.18;2.17;;;14.30;73.00;;;;;;5014591;28;20486;-82
2023/04/19 12:45:57;;;;;;;4.53;2.08;;;14.30;73.00;;;;;;4997112;28;20030;-83
2023/04/19 12:48:24;;;;;;;5.47;1.98;;;14.20;73.00;;;;;;4997033;28;20172;-83
2023/04/19 12:50:49;;;;;;;5.25;2.25;;;14.20;73.00;;;;;;4996823;28;20022;-82
2023/04/19 12:53:15;;;;;;;6.93;1.85;;;14.20;73.00;;;;;;4996963;28;20376;-83
2023/04/19 12:55:40;;;;;;;6.55;2.22;;;14.20;73.10;;;;;;5014456;28;20022;-82
2023/04/19 12:58:06;;;;;;;4.13;1.90;;;14.20;73.10;;;;;;5014471;28;20026;-83
2023/04/19 13:00:31;;;;;;;5.60;1.92;;;14.20;73.00;;;;;;5014225;28;20030;-81
2023/04/19 13:02:57;;;;;;;4.65;2.08;;;14.20;73.00;;;;;;4996831;28;20080;-82
2023/04/19 13:05:22;;;;;;;5.97;1.90;;;14.20;73.10;;;;;;4996934;28;20029;-82
2023/04/19 13:07:48;;;;;;;4.75;2.03;;;14.20;72.90;;;;;;4996731;28;20474;-83
2023/04/19 13:10:13;;;;;;;6.18;2.03;;;14.20;73.00;;;;;;4995801;28;20025;-83
2023/04/19 13:12:39;;;;;;;5.13;2.08;;;14.10;73.20;;;;;;4996045;28;20030;-83
2023/04/19 13:15:05;;;;;;;5.13;1.92;;;14.10;73.00;;;;;;5076574;23;20064;-83
2023/04/19 13:17:31;;;;;;;6.50;2.00;;;14.20;73.20;;;;;;5035213;28;20025;-83
2023/04/19 13:19:56;;;;;;;5.78;1.98;;;14.10;73.10;;;;;;5035333;28;20052;-83
2023/04/19 13:22:22;;;;;;;5.65;2.00;;;14.10;73.10;;;;;;5054092;28;20021;-83
2023/04/19 13:24:47;;;;;;;5.43;1.92;;;14.10;73.20;;;;;;5035673;28;20025;-83
2023/04/19 13:27:13;;;;;;;6.03;1.90;;;14.10;73.10;;;;;;5036350;28;20032;-84
2023/04/19 13:29:38;;;;;;;5.20;1.83;;;14.10;73.10;;;;;;5053409;28;20021;-83
2023/04/19 13:32:11;;;;;;;4.68;1.88;;;14.10;73.10;;;;;;5034969;28;20041;-83
2023/04/19 13:34:36;;;;;;;5.43;1.80;;;14.10;73.10;;;;;;5035674;28;20024;-84
2023/04/19 13:37:02;;;;;;;6.00;2.10;;;14.10;73.00;;;;;;5035442;28;20025;-83
2023/04/19 13:39:27;;;;;;;5.07;1.85;;;14.10;73.10;;;;;;5035241;28;20056;-83
2023/04/19 13:41:53;;;;;;;4.90;1.90;;;14.10;73.10;;;;;;5035433;28;20031;-83
2023/04/19 13:44:18;;;;;;;4.30;1.77;;;14.00;73.10;;;;;;5035530;28;20067;-84
2023/04/19 13:46:44;;;;;;;5.25;1.90;;;14.10;73.10;;;;;;5053514;28;20036;-84
2023/04/19 13:49:10;;;;;;;5.30;2.10;;;14.00;73.10;;;;;;5035354;28;20524;-83
2023/04/19 13:51:35;;;;;;;5.05;1.80;;;14.00;73.10;;;;;;5052282;28;20090;-83
2023/04/19 13:54:00;;;;;;;5.82;1.85;;;14.00;73.20;;;;;;5052548;28;20031;-82
2023/04/19 13:56:26;;;;;;;5.03;1.75;;;14.00;73.20;;;;;;5034758;28;20112;-83
2023/04/19 13:58:51;;;;;;;4.97;1.90;;;14.00;73.20;;;;;;5052802;28;20420;-83
2023/04/19 14:01:17;;;;;;;3.67;1.80;;;14.00;73.30;;;;;;5033989;28;20033;-83
2023/04/19 14:03:43;;;;;;;3.90;1.80;;;14.00;73.20;;;;;;5035384;28;20555;-85
2023/04/19 14:06:08;;;;;;;5.20;2.10;;;14.00;73.20;;;;;;5049572;28;20445;-82
2023/04/19 14:08:34;;;;;;;5.55;1.88;;;13.90;73.10;;;;;;5049562;28;20408;-84
2023/04/19 14:10:59;;;;;;;6.15;1.80;;;13.90;73.10;;;;;;5034207;28;20020;-80
2023/04/19 14:13:25;;;;;;;4.72;1.88;;;13.90;73.00;;;;;;5053648;28;20029;-80
2023/04/19 14:15:51;;;;;;;3.60;1.70;;;13.90;73.10;;;;;;5051114;28;20556;-79
2023/04/19 14:18:16;;;;;;;7.22;2.10;;;13.90;73.10;;;;;;5052983;28;20052;-80
2023/04/19 14:20:42;;;;;;;4.65;2.05;;;13.90;73.00;;;;;;5051341;28;20031;-83
2023/04/19 14:23:07;;;;;;;5.75;2.15;;;13.90;73.00;;;;;;5053250;28;20078;-83
2023/04/19 14:25:33;;;;;;;5.32;2.00;;;13.90;73.00;;;;;;5052612;28;20029;-83
2023/04/19 14:27:58;;;;;;;3.35;1.70;;;13.90;73.00;;;;;;5051174;28;20031;-83
2023/04/19 14:30:25;;;;;;;3.83;1.55;;;13.90;73.10;;;;;;5052549;28;20033;-81
2023/04/19 14:32:50;;;;;;;5.05;1.80;;;13.90;73.10;;;;;;5051406;28;20111;-82
2023/04/19 14:35:16;;;;;;;3.88;1.75;;;13.90;73.10;;;;;;5050426;28;20338;-84
2023/04/19 14:37:42;;;;;;;5.18;1.70;;;13.90;73.20;;;;;;5055764;28;20029;-84
2023/04/19 14:40:09;;;;;;;3.35;1.60;;;13.80;73.10;;;;;;5057181;28;20066;-84
2023/04/19 14:42:34;;;;;;;4.55;2.00;;;13.90;73.10;;;;;;5053210;28;20025;-83
2023/04/19 14:45:00;;;;;;;4.35;1.60;;;13.80;73.00;;;;;;5054029;28;20025;-84
2023/04/19 14:47:25;;;;;;;3.30;1.48;;;13.80;73.00;;;;;;5055641;28;20021;-84
2023/04/19 14:49:51;;;;;;;3.92;1.70;;;13.80;73.00;;;;;;5056303;28;20473;-83
2023/04/19 14:52:17;;;;;;;2.95;1.60;;;13.80;73.00;;;;;;5056258;28;20025;-83
2023/04/19 14:54:42;;;;;;;3.88;1.90;;;13.80;73.00;;;;;;5055635;28;20021;-83
2023/04/19 14:57:08;;;;;;;5.05;1.80;;;13.80;73.00;;;;;;5055380;28;20116;-83